createdAt,value
2018-09-05T00:01:14.639Z,19.60
2018-09-05T00:03:44.865Z,24.00
2018-09-05T00:06:15.135Z,19.37
2018-09-05T00:08:45.599Z,20.00
2018-09-05T00:11:15.931Z,19.60
2018-09-05T00:13:46.259Z,17.50
2018-09-05T00:16:16.674Z,21.10
2018-09-05T00:18:47.885Z,24.03
2018-09-05T00:21:18.180Z,19.23
2018-09-05T00:23:48.783Z,17.17
2018-09-05T00:26:19.071Z,16.97
2018-09-05T00:28:49.716Z,16.33
2018-09-05T00:31:20.001Z,16.67
2018-09-05T00:33:50.789Z,20.47
2018-09-05T00:36:21.300Z,18.10
2018-09-05T00:38:51.746Z,17.77
2018-09-05T00:41:22.160Z,17.90
2018-09-05T00:43:52.624Z,16.00
2018-09-05T00:46:23.130Z,15.63
2018-09-05T00:48:53.556Z,17.63
2018-09-05T00:51:24.072Z,22.40
2018-09-05T00:53:54.536Z,16.27
2018-09-05T00:56:24.977Z,20.37
2018-09-05T00:58:55.432Z,18.30
2018-09-05T01:01:25.725Z,16.70
2018-09-05T01:03:55.994Z,17.23
2018-09-05T01:06:26.666Z,16.03
2018-09-05T01:08:57.188Z,17.40
2018-09-05T01:11:27.983Z,19.40
2018-09-05T01:13:58.270Z,18.93
2018-09-05T01:16:29.052Z,18.33
2018-09-05T01:18:59.481Z,18.20
2018-09-05T01:21:29.894Z,15.57
2018-09-05T01:24:00.355Z,20.60
2018-09-05T01:26:31.269Z,17.23
2018-09-05T01:29:01.725Z,18.30
2018-09-05T01:31:32.379Z,18.50
2018-09-05T01:34:02.646Z,15.23
2018-09-05T01:36:33.102Z,18.47
2018-09-05T01:39:04.900Z,19.93
2018-09-05T01:41:35.593Z,15.80
2018-09-05T01:44:05.920Z,20.20
2018-09-05T01:46:36.151Z,18.17
2018-09-05T01:49:07.007Z,15.37
2018-09-05T01:51:37.428Z,15.10
2018-09-05T01:54:07.808Z,21.53
2018-09-05T01:56:38.232Z,15.00
2018-09-05T01:59:09.760Z,17.20
2018-09-05T02:01:40.068Z,17.30
2018-09-05T02:04:10.508Z,15.80
2018-09-05T02:06:40.960Z,17.40
2018-09-05T02:09:12.996Z,17.03
2018-09-05T02:11:43.790Z,18.77
2018-09-05T02:14:14.427Z,17.43
2018-09-05T02:16:44.783Z,18.33
2018-09-05T02:19:15.214Z,14.10
2018-09-05T02:21:45.536Z,20.40
2018-09-05T02:24:16.062Z,17.50
2018-09-05T02:26:46.590Z,18.80
2018-09-05T02:29:16.870Z,16.43
2018-09-05T02:31:47.313Z,15.73
2018-09-05T02:34:17.742Z,18.77
2018-09-05T02:36:49.408Z,14.80
2018-09-05T02:39:20.160Z,16.20
2018-09-05T02:41:50.586Z,17.40
2018-09-05T02:44:23.169Z,19.93
2018-09-05T02:46:55.616Z,16.40
2018-09-05T02:49:26.233Z,16.40
2018-09-05T02:51:56.640Z,18.73
2018-09-05T02:54:27.910Z,17.30
2018-09-05T02:56:58.168Z,19.07
2018-09-05T02:59:28.394Z,16.53
2018-09-05T03:01:58.596Z,16.63
2018-09-05T03:04:28.822Z,15.97
2018-09-05T03:06:59.252Z,17.63
2018-09-05T03:09:29.555Z,16.47
2018-09-05T03:11:59.940Z,20.00
2018-09-05T03:14:30.426Z,16.63
2018-09-05T03:17:00.711Z,15.20
2018-09-05T03:19:31.116Z,19.33
2018-09-05T03:22:01.539Z,17.73
2018-09-05T03:24:32.636Z,17.10
2018-09-05T03:27:03.223Z,17.03
2018-09-05T03:29:33.620Z,17.90
2018-09-05T03:32:04.028Z,23.70
2018-09-05T03:34:34.291Z,25.40
2018-09-05T03:37:04.846Z,21.53
2018-09-05T03:39:35.475Z,21.00
2018-09-05T03:42:05.837Z,22.07
2018-09-05T03:44:36.054Z,22.77
2018-09-05T03:47:06.549Z,22.53
2018-09-05T03:49:37.022Z,27.30
2018-09-05T03:52:07.831Z,19.73
2018-09-05T03:54:38.291Z,17.17
2018-09-05T03:57:08.720Z,18.50
2018-09-05T03:59:38.951Z,23.43
2018-09-05T04:02:09.424Z,19.50
2018-09-05T04:04:40.009Z,19.90
2018-09-05T04:07:10.326Z,19.80
2018-09-05T04:09:40.614Z,25.07
2018-09-05T04:12:10.977Z,27.60
2018-09-05T04:14:42.048Z,19.33
2018-09-05T04:17:12.748Z,20.53
2018-09-05T04:19:43.154Z,24.47
2018-09-05T04:22:13.620Z,18.80
2018-09-05T04:24:44.468Z,21.70
2018-09-05T04:27:15.688Z,20.60
2018-09-05T04:29:46.186Z,21.33
2018-09-05T04:32:16.545Z,21.00
2018-09-05T04:34:46.827Z,17.47
2018-09-05T04:37:17.236Z,22.17
2018-09-05T04:39:47.880Z,19.53
2018-09-05T04:42:18.365Z,21.10
2018-09-05T04:44:48.641Z,18.23
2018-09-05T04:47:19.155Z,19.17
2018-09-05T04:49:49.385Z,24.50
2018-09-05T04:52:19.709Z,24.10
2018-09-05T04:54:50.417Z,22.67
2018-09-05T04:57:20.983Z,30.10
2018-09-05T04:59:51.615Z,21.00
2018-09-05T05:02:22.112Z,18.27
2018-09-05T05:04:52.667Z,17.63
2018-09-05T05:07:23.169Z,29.80
2018-09-05T05:09:53.841Z,27.23
2018-09-05T05:12:24.262Z,20.20
2018-09-05T05:14:55.020Z,23.03
2018-09-05T05:17:25.440Z,20.00
2018-09-05T05:19:55.898Z,19.27
2018-09-05T05:22:26.180Z,24.70
2018-09-05T05:24:56.688Z,24.90
2018-09-05T05:27:27.152Z,21.50
2018-09-05T05:29:57.575Z,21.43
2018-09-05T05:32:28.041Z,27.90
2018-09-05T05:34:58.528Z,17.03
2018-09-05T05:37:28.791Z,23.63
2018-09-05T05:40:03.680Z,24.30
2018-09-05T05:42:40.601Z,20.23
2018-09-05T05:45:11.076Z,18.33
2018-09-05T05:47:41.316Z,22.40
2018-09-05T05:50:12.026Z,21.80
2018-09-05T05:52:42.324Z,23.90
2018-09-05T05:55:12.771Z,23.70
2018-09-05T05:57:43.232Z,22.57
2018-09-05T06:00:13.646Z,17.33
2018-09-05T06:02:44.103Z,20.70
2018-09-05T06:05:14.351Z,21.83
2018-09-05T06:07:44.636Z,22.60
2018-09-05T06:10:15.264Z,23.53
2018-09-05T06:12:45.592Z,23.97
2018-09-05T06:15:16.021Z,31.77
2018-09-05T06:17:47.196Z,24.07
2018-09-05T06:20:17.664Z,22.90
2018-09-05T06:22:48.360Z,21.03
2018-09-05T06:25:19.017Z,22.80
2018-09-05T06:27:49.381Z,20.27
2018-09-05T06:30:19.974Z,30.00
2018-09-05T06:32:50.586Z,16.27
2018-09-05T06:35:21.043Z,18.43
2018-09-05T06:37:51.500Z,17.57
2018-09-05T06:40:22.002Z,24.80
2018-09-05T06:42:52.217Z,22.70
2018-09-05T06:45:22.503Z,22.23
2018-09-05T06:47:53.139Z,20.90
2018-09-05T06:50:24.488Z,21.07
2018-09-05T06:52:57.240Z,18.37
2018-09-05T06:55:27.879Z,24.47
2018-09-05T06:57:58.538Z,21.17
2018-09-05T07:00:29.102Z,17.20
2018-09-05T07:02:59.431Z,19.43
2018-09-05T07:05:29.959Z,21.07
2018-09-05T07:08:00.657Z,18.73
2018-09-05T07:10:31.101Z,24.07
2018-09-05T07:13:01.277Z,19.40
2018-09-05T07:15:31.778Z,17.83
2018-09-05T07:18:02.405Z,17.57
2018-09-05T07:20:33.044Z,16.03
2018-09-05T07:23:03.881Z,23.40
2018-09-05T07:25:34.409Z,17.37
2018-09-05T07:28:04.909Z,17.47
2018-09-05T07:30:35.318Z,19.90
2018-09-05T07:33:05.994Z,20.70
2018-09-05T07:35:36.500Z,21.40
2018-09-05T07:38:07.123Z,18.50
2018-09-05T07:40:37.443Z,17.60
2018-09-05T07:43:07.745Z,14.33
2018-09-05T07:45:38.331Z,16.70
2018-09-05T07:48:09.162Z,18.83
2018-09-05T07:50:39.813Z,21.50
2018-09-05T07:53:11.024Z,19.13
2018-09-05T07:55:41.320Z,15.33
2018-09-05T07:58:11.920Z,15.10
2018-09-05T08:00:42.212Z,19.97
2018-09-05T08:03:13.345Z,15.17
2018-09-05T08:05:43.559Z,18.17
2018-09-05T08:08:13.876Z,16.93
2018-09-05T08:10:44.405Z,14.40
2018-09-05T08:13:14.945Z,14.57
2018-09-05T08:15:45.475Z,15.93
2018-09-05T08:18:16.096Z,14.30
2018-09-05T08:20:47.334Z,13.60
2018-09-05T08:23:17.825Z,18.73
2018-09-05T08:25:48.172Z,12.93
2018-09-05T08:28:18.704Z,17.87
2018-09-05T08:30:48.981Z,32.67
2018-09-05T08:33:19.743Z,16.40
2018-09-05T08:35:50.406Z,14.93
2018-09-05T08:38:20.966Z,22.13
2018-09-05T08:40:51.569Z,16.33
2018-09-05T08:43:21.882Z,16.77
2018-09-05T08:45:52.710Z,16.93
2018-09-05T08:48:23.289Z,16.43
2018-09-05T08:50:53.734Z,17.63
2018-09-05T08:53:24.022Z,19.20
2018-09-05T08:55:54.957Z,14.80
2018-09-05T08:58:25.556Z,17.30
2018-09-05T09:00:55.941Z,14.90
2018-09-05T09:03:26.305Z,13.70
2018-09-05T09:05:56.547Z,16.20
2018-09-05T09:08:27.190Z,18.10
2018-09-05T09:10:57.753Z,23.30
2018-09-05T09:13:28.024Z,16.10
2018-09-05T09:15:58.481Z,18.50
2018-09-05T09:18:29.216Z,14.50
2018-09-05T09:20:59.507Z,17.60
2018-09-05T09:23:29.836Z,15.20
2018-09-05T09:26:00.428Z,16.97
2018-09-05T09:28:30.844Z,22.60
2018-09-05T09:31:01.150Z,17.13
2018-09-05T09:33:33.509Z,24.73
2018-09-05T09:36:04.594Z,20.00
2018-09-05T09:38:35.783Z,23.30
2018-09-05T09:41:06.209Z,12.00
2018-09-05T09:43:36.433Z,15.90
2018-09-05T09:46:08.243Z,20.23
2018-09-05T09:48:39.736Z,14.57
2018-09-05T09:51:10.121Z,16.27
2018-09-05T09:53:40.553Z,14.57
2018-09-05T09:56:10.996Z,14.20
2018-09-05T09:58:44.885Z,13.00
2018-09-05T10:01:20.763Z,16.83
2018-09-05T10:03:56.735Z,15.07
2018-09-05T10:06:35.841Z,16.40
2018-09-05T10:09:14.353Z,14.03
2018-09-05T10:11:50.428Z,13.80
2018-09-05T10:14:26.124Z,12.70
2018-09-05T10:17:02.901Z,17.57
2018-09-05T10:19:33.940Z,12.00
2018-09-05T10:22:04.261Z,11.50
2018-09-05T10:24:35.538Z,12.03
2018-09-05T10:27:06.310Z,11.37
2018-09-05T10:29:37.129Z,14.63
2018-09-05T10:32:07.735Z,12.80
2018-09-05T10:34:38.444Z,14.07
2018-09-05T10:37:10.395Z,13.93
2018-09-05T10:39:41.551Z,11.83
2018-09-05T10:42:11.835Z,10.60
2018-09-05T10:44:42.400Z,14.30
2018-09-05T10:47:14.565Z,14.33
2018-09-05T10:49:46.415Z,12.27
2018-09-05T10:52:17.079Z,10.70
2018-09-05T10:54:47.420Z,15.40
2018-09-05T10:57:17.826Z,12.23
2018-09-05T10:59:48.299Z,10.63
2018-09-05T11:02:18.648Z,9.77
2018-09-05T11:04:49.299Z,9.50
2018-09-05T11:07:19.812Z,10.93
2018-09-05T11:09:50.206Z,10.00
2018-09-05T11:12:20.710Z,9.87
2018-09-05T11:14:53.237Z,12.13
2018-09-05T11:17:23.905Z,15.67
2018-09-05T11:19:55.231Z,12.90
2018-09-05T11:22:25.913Z,11.80
2018-09-05T11:24:56.355Z,14.80
2018-09-05T11:27:27.125Z,12.23
2018-09-05T11:29:57.481Z,19.93
2018-09-05T11:32:28.107Z,10.30
2018-09-05T11:34:58.530Z,11.33
2018-09-05T11:37:29.136Z,10.77
2018-09-05T11:39:59.525Z,10.03
2018-09-05T11:42:30.408Z,16.20
2018-09-05T11:45:00.723Z,10.90
2018-09-05T11:47:31.669Z,21.30
2018-09-05T11:50:02.090Z,11.00
2018-09-05T11:52:35.911Z,18.60
2018-09-05T11:55:12.931Z,15.00
2018-09-05T11:57:43.380Z,9.63
2018-09-05T12:00:14.195Z,10.50
2018-09-05T12:02:44.894Z,9.70
2018-09-05T12:05:15.620Z,13.27
2018-09-05T12:07:46.552Z,11.13
2018-09-05T12:10:17.107Z,8.50
2018-09-05T12:12:47.735Z,9.60
2018-09-05T12:15:18.114Z,11.80
2018-09-05T12:17:48.334Z,9.37
2018-09-05T12:20:19.129Z,11.40
2018-09-05T12:22:51.061Z,8.40
2018-09-05T12:25:23.289Z,14.17
2018-09-05T12:27:54.863Z,9.20
2018-09-05T12:30:25.723Z,10.03
2018-09-05T12:32:56.898Z,20.30
2018-09-05T12:35:35.114Z,13.53
2018-09-05T12:38:05.506Z,9.90
2018-09-05T12:40:35.943Z,10.87
2018-09-05T12:43:10.120Z,7.97
2018-09-05T12:45:40.494Z,8.33
2018-09-05T12:48:11.312Z,7.37
2018-09-05T12:50:41.778Z,17.83
2018-09-05T12:53:14.708Z,9.13
2018-09-05T12:55:46.163Z,7.30
2018-09-05T12:58:16.987Z,8.40
2018-09-05T13:00:47.467Z,8.17
2018-09-05T13:03:19.791Z,15.73
2018-09-05T13:05:50.000Z,6.63
2018-09-05T13:08:20.340Z,7.30
2018-09-05T13:10:51.412Z,7.97
2018-09-05T13:13:21.813Z,15.23
2018-09-05T13:15:52.825Z,10.23
2018-09-05T13:18:23.215Z,10.30
2018-09-05T13:20:53.772Z,9.50
2018-09-05T13:23:24.235Z,7.63
2018-09-05T13:25:54.467Z,11.00
2018-09-05T13:28:25.949Z,7.60
2018-09-05T13:30:57.160Z,8.43
2018-09-05T13:33:27.542Z,7.90
2018-09-05T13:35:58.729Z,7.23
2018-09-05T13:38:29.836Z,6.93
2018-09-05T13:41:00.099Z,12.67
2018-09-05T13:43:30.629Z,9.10
2018-09-05T13:46:00.879Z,7.30
2018-09-05T13:48:31.946Z,9.10
2018-09-05T13:51:02.257Z,8.53
2018-09-05T13:53:32.834Z,11.50
2018-09-05T13:56:03.358Z,8.17
2018-09-05T13:58:33.821Z,7.73
2018-09-05T14:01:04.066Z,15.90
2018-09-05T14:03:34.340Z,7.23
2018-09-05T14:06:04.663Z,10.53
2018-09-05T14:08:35.820Z,10.50
2018-09-05T14:11:07.766Z,7.53
2018-09-05T14:13:37.801Z,8.27
2018-09-05T14:16:07.969Z,8.10
2018-09-05T14:18:38.233Z,12.50
2018-09-05T14:21:08.675Z,7.63
2018-09-05T14:23:38.795Z,8.13
2018-09-05T14:26:10.131Z,9.80
2018-09-05T14:28:40.164Z,8.50
2018-09-05T14:31:10.901Z,9.63
2018-09-05T14:33:40.944Z,8.37
2018-09-05T14:36:11.251Z,9.60
2018-09-05T14:38:41.658Z,8.73
2018-09-05T14:41:11.583Z,7.97
2018-09-05T14:43:42.593Z,9.07
2018-09-05T14:46:13.240Z,8.43
2018-09-05T14:48:44.013Z,8.77
2018-09-05T14:51:14.620Z,11.23
2018-09-05T14:53:45.947Z,11.13
2018-09-05T14:56:16.544Z,13.40
2018-09-05T14:58:46.825Z,7.20
2018-09-05T15:01:17.066Z,9.83
2018-09-05T15:03:47.857Z,9.07
2018-09-05T15:06:18.215Z,8.17
2018-09-05T15:08:49.029Z,11.67
2018-09-05T15:11:19.665Z,7.90
2018-09-05T15:13:50.653Z,8.67
2018-09-05T15:16:21.446Z,9.83
2018-09-05T15:18:53.014Z,11.23
2018-09-05T15:21:23.837Z,14.70
2018-09-05T15:23:54.570Z,14.10
2018-09-05T15:26:25.230Z,13.10
2018-09-05T15:28:56.054Z,7.83
2018-09-05T15:31:26.701Z,7.57
2018-09-05T15:33:57.412Z,9.13
2018-09-05T15:36:27.917Z,8.70
2018-09-05T15:38:58.569Z,8.20
2018-09-05T15:41:28.842Z,14.67
2018-09-05T15:43:59.646Z,8.03
2018-09-05T15:46:31.399Z,11.43
2018-09-05T15:49:02.284Z,8.20
2018-09-05T15:51:33.269Z,7.90
2018-09-05T15:54:04.726Z,8.67
2018-09-05T15:56:36.785Z,8.13
2018-09-05T15:59:07.380Z,9.63
2018-09-05T16:01:38.095Z,8.50
2018-09-05T16:04:08.605Z,8.53
2018-09-05T16:06:39.021Z,7.97
2018-09-05T16:09:10.802Z,8.20
2018-09-05T16:11:41.889Z,10.90
2018-09-05T16:14:12.176Z,7.43
2018-09-05T16:16:42.703Z,7.47
2018-09-05T16:19:13.350Z,7.53
2018-09-05T16:21:44.049Z,8.43
2018-09-05T16:24:14.465Z,13.60
2018-09-05T16:26:44.984Z,8.33
2018-09-05T16:29:15.204Z,8.90
2018-09-05T16:31:45.726Z,8.73
2018-09-05T16:34:16.237Z,13.20
2018-09-05T16:36:46.971Z,9.10
2018-09-05T16:39:17.525Z,7.83
2018-09-05T16:41:48.057Z,8.30
2018-09-05T16:44:18.437Z,8.70
2018-09-05T16:46:49.080Z,8.90
2018-09-05T16:49:19.730Z,11.73
2018-09-05T16:51:50.161Z,8.10
2018-09-05T16:54:20.757Z,13.30
2018-09-05T16:56:51.321Z,8.67
2018-09-05T16:59:21.876Z,8.57
2018-09-05T17:01:52.419Z,14.23
2018-09-05T17:04:23.127Z,9.10
2018-09-05T17:06:53.605Z,9.83
2018-09-05T17:09:24.143Z,9.00
2018-09-05T17:11:54.451Z,10.27
2018-09-05T17:14:25.264Z,10.43
2018-09-05T17:16:55.837Z,8.07
2018-09-05T17:19:27.209Z,12.00
2018-09-05T17:21:57.748Z,8.80
2018-09-05T17:24:28.309Z,16.57
2018-09-05T17:26:59.129Z,18.43
2018-09-05T17:29:29.652Z,10.87
2018-09-05T17:32:00.180Z,11.30
2018-09-05T17:34:31.084Z,12.03
2018-09-05T17:37:02.266Z,12.63
2018-09-05T17:39:32.933Z,10.20
2018-09-05T17:42:03.206Z,8.80
2018-09-05T17:44:33.718Z,9.00
2018-09-05T17:47:04.343Z,8.23
2018-09-05T17:49:34.813Z,16.20
2018-09-05T17:52:05.539Z,9.63
2018-09-05T17:54:35.792Z,12.33
2018-09-05T17:57:06.379Z,9.67
2018-09-05T17:59:36.906Z,8.10
2018-09-05T18:02:08.035Z,11.87
2018-09-05T18:04:38.491Z,11.03
2018-09-05T18:07:11.940Z,10.47
2018-09-05T18:09:42.517Z,10.63
2018-09-05T18:12:13.278Z,15.30
2018-09-05T18:14:43.565Z,9.33
2018-09-05T18:17:14.161Z,10.37
2018-09-05T18:20:15.284Z,9.47
2018-09-05T18:22:45.568Z,11.57
2018-09-05T18:25:16.458Z,16.10
2018-09-05T18:27:47.360Z,12.17
2018-09-05T18:30:18.230Z,10.20
2018-09-05T18:32:49.556Z,23.70
2018-09-05T18:35:19.822Z,11.13
2018-09-05T18:37:50.281Z,14.60
2018-09-05T18:40:21.409Z,9.97
2018-09-05T18:42:51.960Z,10.53
2018-09-05T18:45:22.192Z,11.73
2018-09-05T18:47:52.720Z,22.13
2018-09-05T18:50:23.456Z,10.07
2018-09-05T18:53:01.848Z,12.27
2018-09-05T18:55:33.118Z,12.17
2018-09-05T18:58:03.380Z,15.90
2018-09-05T19:00:34.278Z,10.03
2018-09-05T19:03:05.857Z,10.23
2018-09-05T19:05:37.424Z,10.60
2018-09-05T19:08:08.424Z,14.00
2018-09-05T19:10:38.814Z,22.20
2018-09-05T19:13:09.876Z,10.77
2018-09-05T19:15:40.173Z,13.67
2018-09-05T19:18:10.455Z,16.07
2018-09-05T19:20:41.011Z,12.93
2018-09-05T19:23:11.596Z,21.53
2018-09-05T19:25:42.189Z,12.03
2018-09-05T19:28:12.728Z,16.47
2018-09-05T19:30:43.248Z,20.20
2018-09-05T19:33:13.760Z,19.67
2018-09-05T19:35:44.052Z,14.27
2018-09-05T19:38:14.277Z,13.40
2018-09-05T19:40:45.061Z,18.53
2018-09-05T19:43:15.301Z,10.73
2018-09-05T19:45:45.825Z,11.30
2018-09-05T19:48:16.378Z,14.33
2018-09-05T19:50:47.057Z,11.20
2018-09-05T19:53:17.728Z,12.83
2018-09-05T19:55:48.278Z,18.93
2018-09-05T20:01:19.645Z,12.13
2018-09-05T20:03:50.603Z,16.80
2018-09-05T20:06:20.874Z,13.00
2018-09-05T20:08:51.506Z,15.50
2018-09-05T20:11:22.195Z,16.73
2018-09-05T20:13:53.336Z,20.30
2018-09-05T20:16:23.988Z,18.67
2018-09-05T20:18:57.833Z,15.83
2018-09-05T20:21:28.666Z,19.20
2018-09-05T20:24:01.025Z,16.73
2018-09-05T20:26:31.324Z,16.83
2018-09-05T20:29:03.221Z,18.00
2018-09-05T20:31:34.098Z,16.77
2018-09-05T20:34:04.721Z,15.80
2018-09-05T20:36:35.534Z,15.13
2018-09-05T20:39:09.772Z,14.27
2018-09-05T20:41:40.457Z,14.60
2018-09-05T20:44:10.902Z,16.80
2018-09-05T20:46:41.512Z,16.20
2018-09-05T20:49:12.156Z,20.37
2018-09-05T20:51:43.936Z,16.30
2018-09-05T20:54:14.801Z,16.43
2018-09-05T20:56:46.733Z,18.93
2018-09-05T20:59:19.050Z,21.97
2018-09-05T21:01:49.687Z,18.90
2018-09-05T21:04:20.004Z,13.80
2018-09-05T21:06:50.670Z,16.90
2018-09-05T21:09:21.866Z,18.00
2018-09-05T21:11:53.055Z,16.60
2018-09-05T21:14:24.379Z,18.87
2018-09-05T21:16:55.171Z,23.53
2018-09-05T21:19:26.480Z,20.20
2018-09-05T21:21:57.627Z,23.63
2018-09-05T21:24:29.128Z,14.47
2018-09-05T21:26:59.720Z,30.73
2018-09-05T21:29:31.432Z,23.00
2018-09-05T21:32:01.975Z,21.63
2018-09-05T21:34:33.716Z,25.37
2018-09-05T21:37:04.280Z,19.90
2018-09-05T21:39:35.089Z,23.10
2018-09-05T21:42:08.308Z,24.47
2018-09-05T21:44:39.093Z,24.17
2018-09-05T21:47:10.685Z,20.33
2018-09-05T21:49:41.366Z,14.30
2018-09-05T21:52:12.926Z,21.70
2018-09-05T21:54:45.459Z,22.40
2018-09-05T21:57:17.008Z,16.90
2018-09-05T21:59:48.101Z,27.00
2018-09-05T22:02:19.377Z,28.37
2018-09-05T22:04:51.920Z,21.50
2018-09-05T22:07:25.180Z,28.37
2018-09-05T22:09:55.800Z,28.53
2018-09-05T22:12:26.356Z,26.73
2018-09-05T22:14:57.109Z,36.47
2018-09-05T22:17:27.408Z,24.33
2018-09-05T22:19:58.040Z,27.40
2018-09-05T22:22:28.679Z,19.90
2018-09-05T22:24:58.967Z,33.00
2018-09-05T22:27:29.604Z,22.70
2018-09-05T22:30:00.285Z,28.00
2018-09-05T22:32:30.584Z,34.60
2018-09-05T22:35:01.229Z,26.83
2018-09-05T22:37:45.542Z,22.93
2018-09-05T22:40:16.136Z,26.97
2018-09-05T22:42:58.857Z,20.03
2018-09-05T22:45:40.590Z,19.85
2018-09-05T22:48:27.000Z,18.53
2018-09-05T22:51:13.397Z,14.60
2018-09-05T22:56:09.759Z,24.30
2018-09-05T22:58:52.163Z,17.23
2018-09-05T23:01:35.858Z,15.73
2018-09-05T23:04:52.295Z,18.77
2018-09-05T23:07:32.152Z,32.50
2018-09-05T23:10:15.523Z,16.77
2018-09-05T23:12:57.051Z,22.03
2018-09-05T23:15:38.725Z,17.10
2018-09-05T23:20:25.557Z,17.33
2018-09-05T23:23:07.882Z,18.17
2018-09-05T23:25:39.037Z,15.97
2018-09-05T23:28:10.995Z,14.37
2018-09-05T23:30:41.263Z,16.13
2018-09-05T23:33:11.846Z,19.13
2018-09-05T23:35:42.146Z,16.63
2018-09-05T23:38:12.745Z,19.63
2018-09-05T23:40:43.025Z,17.23
2018-09-05T23:43:13.630Z,18.00
2018-09-05T23:45:44.185Z,17.60
2018-09-05T23:48:14.563Z,17.43
2018-09-05T23:50:46.629Z,16.07
2018-09-05T23:53:18.451Z,16.33
2018-09-05T23:55:49.581Z,17.87
2018-09-05T23:58:20.229Z,15.97
